Time;durP1;ratioP1;P1;durP2;ratioP2;P2;SDS_P1;SDS_P2;PMS_P1;PMS_P2;Temp;Humidity;BMP_temperature;BMP_pressure;BME280_temperature;BME280_humidity;BME280_pressure;Samples;Min_cycle;Max_cycle;Signal;HPM_P1;HPM_P2
2022/02/06 00:00:39;;;;;;;5.53;4.32;;;;;;;;;;4986432;28;20030;-53
2022/02/06 00:03:04;;;;;;;6.60;4.85;;;;;;;;;;4989039;28;20076;-52
2022/02/06 00:05:30;;;;;;;6.88;4.75;;;;;;;;;;4988797;28;20046;-52
2022/02/06 00:07:56;;;;;;;6.63;5.00;;;;;;;;;;4986600;28;20034;-53
2022/02/06 00:10:21;;;;;;;6.38;4.72;;;;;;;;;;4969133;28;20071;-52
2022/02/06 00:12:47;;;;;;;5.97;4.60;;;;;;;;;;4969117;28;20499;-52
2022/02/06 00:15:12;;;;;;;6.50;4.57;;;;;;;;;;4981269;28;20725;-52
2022/02/06 00:17:37;;;;;;;7.32;5.00;;;;;;;;;;4973307;28;20154;-52
2022/02/06 00:20:03;;;;;;;5.88;4.38;;;;;;;;;;4951830;28;20030;-52
2022/02/06 00:22:37;;;;;;;5.75;4.57;;;;;;;;;;4968933;28;20026;-52
2022/02/06 00:27:42;;;;;;;5.47;4.18;;;;;;;;;;4988597;28;20030;-53
2022/02/06 00:30:20;;;;;;;5.57;4.13;;;;;;;;;;4988420;28;20562;-53
2022/02/06 00:32:50;;;;;;;7.70;4.70;;;;;;;;;;4972310;28;20104;-52
2022/02/06 00:40:36;;;;;;;5.32;3.90;;;;;;;;;;4988235;28;20322;-52
2022/02/06 00:43:01;;;;;;;5.88;4.10;;;;;;;;;;4988156;28;20026;-53
2022/02/06 00:45:27;;;;;;;5.97;4.07;;;;;;;;;;4988045;28;20105;-53
2022/02/06 00:47:52;;;;;;;5.55;4.57;;;;;;;;;;4987546;28;20282;-53
2022/02/06 00:50:18;;;;;;;7.10;5.20;;;;;;;;;;4987735;28;20061;-52
2022/02/06 00:52:53;;;;;;;6.35;4.72;;;;;;;;;;4988157;28;20269;-53
2022/02/06 00:55:18;;;;;;;6.22;4.53;;;;;;;;;;4974911;28;20042;-52
2022/02/06 00:57:44;;;;;;;6.05;4.20;;;;;;;;;;4968199;28;20508;-53
2022/02/06 01:00:09;;;;;;;5.75;4.05;;;;;;;;;;4972106;28;20026;-52
2022/02/06 01:02:34;;;;;;;5.13;4.15;;;;;;;;;;4987713;28;20839;-53
2022/02/06 01:05:01;;;;;;;6.20;3.93;;;;;;;;;;4987620;28;20404;-53
2022/02/06 01:07:26;;;;;;;5.20;4.10;;;;;;;;;;4987346;28;20145;-52
2022/02/06 01:09:51;;;;;;;6.97;4.60;;;;;;;;;;4987359;28;21092;-52
2022/02/06 01:12:21;;;;;;;6.93;4.55;;;;;;;;;;4987431;28;20718;-53
2022/02/06 01:15:04;;;;;;;6.32;4.10;;;;;;;;;;4978708;28;20042;-52
2022/02/06 01:17:35;;;;;;;5.50;4.03;;;;;;;;;;4968107;28;20413;-53
2022/02/06 01:20:11;;;;;;;5.57;4.13;;;;;;;;;;4967434;28;20042;-53
2022/02/06 01:22:38;;;;;;;5.22;3.97;;;;;;;;;;4967432;28;20042;-52
2022/02/06 01:25:13;;;;;;;5.50;4.15;;;;;;;;;;4967262;28;20058;-52
2022/02/06 01:27:53;;;;;;;5.43;4.15;;;;;;;;;;4967010;28;20429;-53
2022/02/06 01:30:25;;;;;;;;;;;;;;;;;;4968484;28;20034;-53
2022/02/06 01:32:56;;;;;;;4.85;3.97;;;;;;;;;;4976982;28;20021;-52
2022/02/06 01:35:38;;;;;;;5.50;4.25;;;;;;;;;;4974170;28;20039;-52
2022/02/06 01:40:54;;;;;;;5.55;4.00;;;;;;;;;;4968030;28;20035;-53
2022/02/06 01:43:23;;;;;;;6.18;4.68;;;;;;;;;;4968099;28;20015;-53
2022/02/06 02:02:18;;;;;;;5.18;3.90;;;;;;;;;;4967380;28;20045;-53
2022/02/06 02:05:17;;;;;;;5.43;4.07;;;;;;;;;;4966817;28;20030;-53
2022/02/06 02:07:56;;;;;;;5.22;3.58;;;;;;;;;;4967942;28;20058;-53
2022/02/06 02:13:38;;;;;;;4.90;3.80;;;;;;;;;;4988428;28;20473;-55
2022/02/06 02:47:24;;;;;;;4.97;3.70;;;;;;;;;;4972252;28;20068;-53
2022/02/06 02:49:59;;;;;;;4.93;3.70;;;;;;;;;;4966022;28;20274;-52
2022/02/06 02:55:01;;;;;;;4.53;3.40;;;;;;;;;;4975188;28;20077;-52
2022/02/06 02:57:35;;;;;;;5.15;3.35;;;;;;;;;;4972081;28;20062;-54
2022/02/06 03:00:39;;;;;;;4.95;3.70;;;;;;;;;;4982161;28;20141;-54
2022/02/06 03:02:59;;;;;;;4.70;3.78;;;;;;;;;;4965306;28;20390;-52
2022/02/06 03:05:26;;;;;;;5.35;3.40;;;;;;;;;;4966672;28;20026;-53
2022/02/06 03:07:52;;;;;;;5.20;3.83;;;;;;;;;;4966807;28;20113;-53
2022/02/06 03:10:18;;;;;;;5.03;3.42;;;;;;;;;;4967500;28;20047;-53
2022/02/06 03:12:48;;;;;;;4.53;3.75;;;;;;;;;;4970119;28;20037;-53
2022/02/06 03:15:30;;;;;;;4.82;3.20;;;;;;;;;;4980050;28;20030;-51
2022/02/06 03:18:01;;;;;;;4.47;3.63;;;;;;;;;;4969928;28;20090;-52
2022/02/06 03:20:28;;;;;;;4.95;3.47;;;;;;;;;;4967949;28;20033;-53
2022/02/06 03:22:54;;;;;;;4.00;3.25;;;;;;;;;;4967315;28;20109;-52
2022/02/06 03:25:21;;;;;;;5.22;4.18;;;;;;;;;;4966816;28;20094;-53
2022/02/06 03:27:47;;;;;;;4.03;3.20;;;;;;;;;;4966723;28;20049;-52
2022/02/06 03:30:12;;;;;;;3.83;3.10;;;;;;;;;;4966855;28;20460;-53
2022/02/06 03:32:38;;;;;;;5.13;3.50;;;;;;;;;;4973356;28;20465;-53
2022/02/06 03:35:03;;;;;;;4.57;3.33;;;;;;;;;;4974099;28;20045;-52
2022/02/06 03:37:28;;;;;;;4.32;3.17;;;;;;;;;;4965513;28;20412;-53
2022/02/06 03:39:55;;;;;;;5.03;3.43;;;;;;;;;;4965205;28;20027;-53
2022/02/06 03:42:23;;;;;;;4.55;3.22;;;;;;;;;;4965542;28;20281;-53
2022/02/06 03:44:52;;;;;;;4.65;3.05;;;;;;;;;;4948103;28;20038;-53
2022/02/06 03:47:23;;;;;;;4.38;3.65;;;;;;;;;;4965440;28;20093;-53
2022/02/06 03:49:55;;;;;;;4.28;3.25;;;;;;;;;;4965478;28;20092;-53
2022/02/06 03:52:25;;;;;;;4.45;3.30;;;;;;;;;;4953277;28;20030;-52
2022/02/06 03:54:51;;;;;;;4.70;3.10;;;;;;;;;;4976270;28;20027;-53
2022/02/06 03:57:16;;;;;;;5.55;3.72;;;;;;;;;;4965403;28;20789;-53
2022/02/06 03:59:41;;;;;;;4.87;3.30;;;;;;;;;;4980819;28;20725;-53
2022/02/06 04:02:06;;;;;;;4.47;3.30;;;;;;;;;;4984712;28;20667;-53
2022/02/06 04:04:32;;;;;;;4.37;3.50;;;;;;;;;;4984825;28;20276;-54
2022/02/06 04:07:04;;;;;;;5.75;3.70;;;;;;;;;;4984613;28;20289;-53
2022/02/06 04:09:36;;;;;;;4.95;3.85;;;;;;;;;;4971200;28;20030;-53
2022/02/06 04:12:03;;;;;;;4.35;3.38;;;;;;;;;;4964733;28;20011;-53
2022/02/06 04:14:31;;;;;;;3.78;3.17;;;;;;;;;;4970872;28;20034;-53
2022/02/06 04:17:06;;;;;;;4.43;3.05;;;;;;;;;;4984871;28;20109;-53
2022/02/06 04:19:31;;;;;;;4.90;3.35;;;;;;;;;;4985307;28;20409;-53
2022/02/06 04:21:57;;;;;;;4.53;3.30;;;;;;;;;;4966980;28;20023;-53
2022/02/06 04:24:23;;;;;;;3.83;2.95;;;;;;;;;;4980094;28;20033;-53
2022/02/06 04:26:50;;;;;;;4.55;2.90;;;;;;;;;;4965592;28;20551;-53
2022/02/06 04:29:16;;;;;;;3.85;2.85;;;;;;;;;;4965315;28;20031;-53
2022/02/06 04:31:42;;;;;;;4.15;3.03;;;;;;;;;;4965244;28;20038;-53
2022/02/06 04:34:08;;;;;;;3.95;3.00;;;;;;;;;;4967633;28;20031;-53
2022/02/06 04:36:51;;;;;;;3.90;2.80;;;;;;;;;;4984582;28;20033;-53
2022/02/06 05:32:57;;;;;;;3.85;2.75;;;;;;;;;;4968976;28;20046;-54
2022/02/06 05:35:22;;;;;;;3.95;2.90;;;;;;;;;;4979803;28;20046;-53
2022/02/06 05:37:48;;;;;;;3.70;2.60;;;;;;;;;;4987321;28;20038;-52
2022/02/06 05:40:13;;;;;;;3.90;2.70;;;;;;;;;;4972647;28;20074;-53
2022/02/06 05:42:38;;;;;;;3.67;2.63;;;;;;;;;;4968109;28;20268;-52
2022/02/06 05:45:03;;;;;;;4.10;2.78;;;;;;;;;;4967736;28;20023;-52
2022/02/06 05:47:29;;;;;;;3.45;2.55;;;;;;;;;;4980321;28;20598;-53
2022/02/06 05:49:54;;;;;;;4.72;3.13;;;;;;;;;;4978340;28;20040;-52
2022/02/06 05:52:19;;;;;;;3.50;2.60;;;;;;;;;;4977232;28;20560;-52
2022/02/06 05:54:45;;;;;;;3.88;2.65;;;;;;;;;;4987027;28;20716;-52
2022/02/06 05:57:10;;;;;;;4.00;2.73;;;;;;;;;;4986490;28;20049;-52
2022/02/06 05:59:35;;;;;;;4.93;3.00;;;;;;;;;;4985672;28;20676;-52
2022/02/06 06:02:00;;;;;;;3.30;2.63;;;;;;;;;;4985930;28;20026;-52
2022/02/06 06:04:26;;;;;;;4.10;2.73;;;;;;;;;;4973430;28;20420;-52
2022/02/06 06:06:51;;;;;;;3.27;2.37;;;;;;;;;;4983386;28;20328;-53
2022/02/06 06:09:16;;;;;;;4.10;2.80;;;;;;;;;;4986248;28;20109;-52
2022/02/06 06:11:41;;;;;;;4.60;2.60;;;;;;;;;;4984385;28;20160;-52
2022/02/06 06:14:06;;;;;;;3.30;2.40;;;;;;;;;;4986352;28;20111;-52
2022/02/06 06:16:33;;;;;;;3.37;2.53;;;;;;;;;;4987249;28;20128;-53
2022/02/06 06:18:59;;;;;;;3.78;3.17;;;;;;;;;;4985310;28;20273;-52
2022/02/06 06:21:26;;;;;;;3.50;2.63;;;;;;;;;;4986433;28;20023;-55
2022/02/06 06:23:53;;;;;;;3.00;2.42;;;;;;;;;;4986316;28;20030;-53
2022/02/06 06:26:21;;;;;;;3.72;2.60;;;;;;;;;;4981444;28;20030;-53
2022/02/06 06:28:46;;;;;;;3.25;2.53;;;;;;;;;;4949648;28;20015;-54
2022/02/06 06:31:11;;;;;;;3.25;2.40;;;;;;;;;;4966737;28;20097;-54
2022/02/06 06:33:36;;;;;;;3.85;2.67;;;;;;;;;;4969426;28;20027;-54
2022/02/06 06:36:03;;;;;;;4.15;2.55;;;;;;;;;;4966741;28;20031;-54
2022/02/06 06:38:28;;;;;;;3.58;2.97;;;;;;;;;;4981037;28;20050;-54
2022/02/06 06:40:53;;;;;;;6.03;2.80;;;;;;;;;;4977824;28;20046;-54
2022/02/06 06:43:19;;;;;;;3.22;2.45;;;;;;;;;;4967017;28;20267;-54
2022/02/06 06:45:44;;;;;;;3.43;2.30;;;;;;;;;;4966959;28;20026;-53
2022/02/06 06:48:09;;;;;;;4.63;2.50;;;;;;;;;;4986222;28;20273;-56
2022/02/06 06:50:34;;;;;;;3.35;2.67;;;;;;;;;;4984481;28;20531;-56
2022/02/06 06:53:01;;;;;;;4.10;2.50;;;;;;;;;;4984021;28;20026;-54
2022/02/06 06:55:28;;;;;;;3.00;2.42;;;;;;;;;;4994356;28;20308;-55
2022/02/06 06:58:03;;;;;;;3.88;2.53;;;;;;;;;;4982698;28;20027;-54
2022/02/06 07:03:03;;;;;;;3.45;2.75;;;;;;;;;;4983886;28;20109;-55
2022/02/06 07:05:28;;;;;;;3.25;2.10;;;;;;;;;;4985313;28;20105;-53
2022/02/06 07:07:54;;;;;;;3.37;2.33;;;;;;;;;;4982100;28;20280;-53
2022/02/06 07:10:20;;;;;;;3.85;2.58;;;;;;;;;;4977000;28;20288;-54
2022/02/06 07:12:45;;;;;;;3.03;2.10;;;;;;;;;;4988747;28;20023;-53
2022/02/06 07:15:10;;;;;;;2.90;2.20;;;;;;;;;;4985578;28;20882;-52
2022/02/06 07:17:35;;;;;;;3.27;2.43;;;;;;;;;;4982220;28;20523;-56
2022/02/06 07:20:02;;;;;;;2.67;2.27;;;;;;;;;;4982018;28;20508;-55
2022/02/06 07:22:33;;;;;;;3.70;2.47;;;;;;;;;;4965333;28;20102;-55
2022/02/06 07:24:58;;;;;;;3.60;2.50;;;;;;;;;;4966345;28;20106;-54
2022/02/06 07:27:28;;;;;;;2.80;2.10;;;;;;;;;;4978814;28;20467;-54
2022/02/06 07:29:53;;;;;;;3.78;2.40;;;;;;;;;;4969305;28;20023;-53
2022/02/06 07:32:18;;;;;;;3.22;2.30;;;;;;;;;;4971821;28;20030;-54
2022/02/06 07:34:44;;;;;;;3.72;2.35;;;;;;;;;;4984535;28;20480;-54
2022/02/06 07:37:09;;;;;;;2.70;2.10;;;;;;;;;;4984428;28;20034;-53
2022/02/06 07:39:34;;;;;;;3.13;2.50;;;;;;;;;;4985295;28;20068;-53
2022/02/06 07:42:00;;;;;;;3.33;2.37;;;;;;;;;;4974791;28;20049;-54
2022/02/06 07:44:25;;;;;;;2.87;2.07;;;;;;;;;;4982393;28;20949;-57
2022/02/06 07:47:00;;;;;;;3.25;2.20;;;;;;;;;;4983353;28;20682;-54
2022/02/06 07:49:25;;;;;;;3.08;2.38;;;;;;;;;;4982509;28;20026;-54
2022/02/06 07:51:50;;;;;;;2.80;2.17;;;;;;;;;;4983797;28;20060;-53
2022/02/06 07:54:15;;;;;;;3.13;2.22;;;;;;;;;;4976805;28;20329;-54
2022/02/06 07:56:41;;;;;;;2.90;2.40;;;;;;;;;;4984494;28;20030;-54
2022/02/06 07:59:06;;;;;;;2.70;2.10;;;;;;;;;;4984094;28;20269;-54
2022/02/06 08:01:31;;;;;;;3.03;2.07;;;;;;;;;;4983766;28;20027;-54
2022/02/06 08:03:56;;;;;;;2.50;2.10;;;;;;;;;;4967993;28;20165;-54
2022/02/06 08:06:22;;;;;;;2.63;1.95;;;;;;;;;;4968135;28;20796;-54
2022/02/06 08:08:47;;;;;;;2.92;2.28;;;;;;;;;;4977743;28;20041;-54
2022/02/06 08:11:14;;;;;;;3.13;2.35;;;;;;;;;;4975492;28;20026;-54
2022/02/06 08:13:42;;;;;;;3.28;2.28;;;;;;;;;;4984581;28;20037;-54
2022/02/06 08:16:08;;;;;;;3.10;2.67;;;;;;;;;;4966627;28;20125;-53
2022/02/06 08:18:36;;;;;;;2.72;2.10;;;;;;;;;;4974096;28;20165;-55
2022/02/06 08:21:02;;;;;;;3.03;2.17;;;;;;;;;;4976290;28;20058;-52
2022/02/06 08:23:29;;;;;;;3.65;2.15;;;;;;;;;;4981393;28;20015;-52
2022/02/06 08:25:54;;;;;;;2.40;2.00;;;;;;;;;;4988038;28;20027;-53
2022/02/06 08:28:20;;;;;;;2.50;1.97;;;;;;;;;;4967735;28;20425;-54
2022/02/06 08:30:47;;;;;;;2.75;2.40;;;;;;;;;;4975669;28;20270;-53
2022/02/06 08:33:15;;;;;;;3.40;2.33;;;;;;;;;;4988582;28;20010;-55
2022/02/06 08:35:46;;;;;;;2.97;2.20;;;;;;;;;;4987134;28;20085;-53
2022/02/06 08:38:12;;;;;;;2.97;2.20;;;;;;;;;;4987034;28;20181;-54
2022/02/06 08:40:38;;;;;;;3.25;2.50;;;;;;;;;;4983027;28;20041;-54
2022/02/06 08:43:03;;;;;;;4.25;2.28;;;;;;;;;;4979125;28;20385;-55
2022/02/06 08:45:29;;;;;;;5.03;2.45;;;;;;;;;;4968670;28;20038;-54
2022/02/06 08:47:55;;;;;;;4.88;2.22;;;;;;;;;;4984321;28;20127;-53
2022/02/06 08:50:20;;;;;;;3.28;2.10;;;;;;;;;;4968322;28;20081;-51
2022/02/06 08:52:45;;;;;;;2.90;2.10;;;;;;;;;;4980748;28;20015;-52
2022/02/06 08:55:13;;;;;;;4.57;2.00;;;;;;;;;;4979273;28;20035;-52
2022/02/06 08:57:45;;;;;;;2.97;2.05;;;;;;;;;;4987709;28;20022;-52
2022/02/06 09:00:10;;;;;;;2.88;2.08;;;;;;;;;;4986452;28;20426;-52
2022/02/06 09:02:35;;;;;;;4.13;2.05;;;;;;;;;;4987295;28;20124;-52
2022/02/06 09:05:02;;;;;;;2.80;1.95;;;;;;;;;;4985944;28;20022;-52
2022/02/06 09:07:28;;;;;;;3.30;2.20;;;;;;;;;;4984369;28;20089;-53
2022/02/06 09:09:58;;;;;;;3.25;2.15;;;;;;;;;;4986495;28;20475;-51
2022/02/06 09:12:24;;;;;;;2.45;2.03;;;;;;;;;;4982559;28;20457;-51
2022/02/06 09:14:49;;;;;;;3.58;2.20;;;;;;;;;;4987375;28;20080;-51
2022/02/06 09:17:15;;;;;;;3.50;2.33;;;;;;;;;;4982897;28;20030;-52
2022/02/06 09:19:40;;;;;;;2.78;2.00;;;;;;;;;;4987071;28;20092;-53
2022/02/06 09:22:06;;;;;;;3.15;2.10;;;;;;;;;;4980429;28;20022;-52
2022/02/06 09:24:31;;;;;;;3.28;2.30;;;;;;;;;;4981682;28;20317;-53
2022/02/06 09:26:56;;;;;;;3.10;2.30;;;;;;;;;;4985283;28;20033;-52
2022/02/06 09:29:21;;;;;;;3.43;2.30;;;;;;;;;;4984911;28;20270;-51
2022/02/06 09:31:51;;;;;;;2.73;2.10;;;;;;;;;;4977381;28;21005;-53
2022/02/06 09:36:46;;;;;;;2.33;1.85;;;;;;;;;;4985837;28;20094;-51
2022/02/06 09:39:11;;;;;;;2.42;1.83;;;;;;;;;;4983893;28;20102;-52
2022/02/06 09:41:37;;;;;;;3.40;2.00;;;;;;;;;;4972942;28;20600;-52
2022/02/06 09:44:02;;;;;;;2.70;2.17;;;;;;;;;;4967547;28;20039;-52
2022/02/06 09:46:28;;;;;;;3.63;2.05;;;;;;;;;;4971279;28;20061;-51
2022/02/06 09:48:53;;;;;;;4.57;2.57;;;;;;;;;;4961995;28;20033;-51
2022/02/06 09:51:18;;;;;;;2.73;2.00;;;;;;;;;;4976816;28;20030;-51
2022/02/06 09:53:43;;;;;;;3.00;2.17;;;;;;;;;;4985286;28;20265;-52
2022/02/06 09:56:12;;;;;;;2.93;2.00;;;;;;;;;;4969098;28;20149;-51
2022/02/06 10:01:03;;;;;;;3.22;2.17;;;;;;;;;;4950488;28;20054;-52
2022/02/06 10:03:28;;;;;;;3.25;2.33;;;;;;;;;;4967148;28;20030;-51
2022/02/06 10:05:53;;;;;;;2.50;2.07;;;;;;;;;;4946745;29;20047;-52
2022/02/06 10:08:25;;;;;;;2.63;2.13;;;;;;;;;;4966703;28;20022;-51
2022/02/06 10:11:11;;;;;;;3.53;2.03;;;;;;;;;;4967488;28;20270;-52
2022/02/06 10:13:37;;;;;;;3.00;2.20;;;;;;;;;;4966535;28;20093;-51
2022/02/06 10:16:03;;;;;;;3.15;2.15;;;;;;;;;;4950294;28;20042;-51
2022/02/06 10:18:28;;;;;;;2.83;2.00;;;;;;;;;;4947587;28;20026;-51
2022/02/06 10:20:54;;;;;;;4.03;2.78;;;;;;;;;;4947658;28;20445;-51
2022/02/06 10:23:26;;;;;;;4.35;2.40;;;;;;;;;;4947721;28;20031;-52
2022/02/06 10:25:53;;;;;;;3.60;2.08;;;;;;;;;;4963600;28;20023;-51
2022/02/06 10:28:37;;;;;;;4.00;2.00;;;;;;;;;;4964699;28;20034;-52
2022/02/06 10:31:03;;;;;;;3.75;2.40;;;;;;;;;;4964877;28;20006;-52
2022/02/06 10:33:48;;;;;;;4.50;1.83;;;;;;;;;;4954120;28;20093;-51
2022/02/06 10:36:14;;;;;;;3.08;2.03;;;;;;;;;;4963794;28;20078;-51
2022/02/06 10:38:40;;;;;;;3.50;2.20;;;;;;;;;;4962868;28;20461;-52
2022/02/06 10:41:05;;;;;;;2.30;2.00;;;;;;;;;;4950338;28;20031;-52
2022/02/06 10:43:30;;;;;;;2.55;2.20;;;;;;;;;;4947027;28;20341;-52
2022/02/06 10:46:09;;;;;;;4.73;2.20;;;;;;;;;;4947072;29;20098;-51
2022/02/06 10:48:35;;;;;;;3.30;2.33;;;;;;;;;;4947270;28;20267;-51
2022/02/06 10:51:00;;;;;;;3.30;2.05;;;;;;;;;;4946834;28;20059;-52
2022/02/06 10:53:26;;;;;;;3.25;2.42;;;;;;;;;;4947247;28;20031;-52
2022/02/06 10:55:52;;;;;;;4.30;1.90;;;;;;;;;;4961857;28;20034;-51
2022/02/06 10:58:17;;;;;;;3.55;2.08;;;;;;;;;;4963714;28;20325;-53
2022/02/06 11:00:42;;;;;;;2.95;2.10;;;;;;;;;;4945782;29;20023;-51
2022/02/06 11:03:21;;;;;;;3.70;2.23;;;;;;;;;;4945592;29;20022;-51
2022/02/06 11:05:50;;;;;;;3.13;2.08;;;;;;;;;;4950728;28;20800;-51
2022/02/06 11:08:22;;;;;;;7.35;2.50;;;;;;;;;;4965705;28;20524;-51
2022/02/06 11:10:47;;;;;;;3.50;2.33;;;;;;;;;;4948351;28;20027;-51
2022/02/06 11:13:15;;;;;;;3.07;2.00;;;;;;;;;;4948371;28;20097;-51
2022/02/06 11:15:46;;;;;;;3.05;1.98;;;;;;;;;;4979174;28;20468;-51
2022/02/06 11:18:12;;;;;;;2.42;1.75;;;;;;;;;;4969293;28;20034;-51
2022/02/06 11:20:38;;;;;;;3.88;2.10;;;;;;;;;;4985400;28;20029;-52
2022/02/06 11:23:03;;;;;;;3.63;2.28;;;;;;;;;;4985326;28;20045;-51
2022/02/06 11:25:32;;;;;;;3.15;2.10;;;;;;;;;;4967654;28;20030;-51
2022/02/06 11:27:58;;;;;;;2.40;1.88;;;;;;;;;;4983947;28;20034;-51
2022/02/06 11:30:23;;;;;;;2.33;1.75;;;;;;;;;;4968743;28;20547;-51
2022/02/06 11:32:48;;;;;;;4.10;1.97;;;;;;;;;;4985014;28;20105;-52
2022/02/06 11:35:18;;;;;;;3.23;2.10;;;;;;;;;;4985217;28;20285;-51
2022/02/06 11:43:54;;;;;;;3.13;2.10;;;;;;;;;;4983119;28;20085;-52
2022/02/06 11:46:20;;;;;;;2.70;1.85;;;;;;;;;;4981615;28;20682;-53
2022/02/06 11:48:45;;;;;;;3.72;2.20;;;;;;;;;;4983659;28;20084;-53
2022/02/06 11:51:15;;;;;;;3.75;1.90;;;;;;;;;;4983925;28;20525;-53
2022/02/06 11:53:40;;;;;;;5.00;3.40;;;;;;;;;;4986771;28;20193;-53
2022/02/06 11:56:24;;;;;;;6.35;3.13;;;;;;;;;;4985201;28;20546;-52
2022/02/06 11:58:50;;;;;;;4.15;2.50;;;;;;;;;;4969070;28;20026;-53
2022/02/06 12:01:15;;;;;;;5.68;2.67;;;;;;;;;;4969413;28;20030;-53
2022/02/06 12:03:47;;;;;;;3.30;2.50;;;;;;;;;;4968976;28;20031;-53
2022/02/06 12:06:12;;;;;;;4.85;2.33;;;;;;;;;;4971629;28;20035;-53
2022/02/06 12:08:42;;;;;;;4.03;2.57;;;;;;;;;;4989459;28;20030;-53
2022/02/06 12:11:08;;;;;;;4.07;2.80;;;;;;;;;;4990260;28;20011;-53
2022/02/06 12:13:34;;;;;;;5.60;2.63;;;;;;;;;;4990126;28;20031;-53
2022/02/06 12:16:01;;;;;;;4.95;2.80;;;;;;;;;;4978589;28;20047;-53
2022/02/06 12:18:27;;;;;;;6.57;2.80;;;;;;;;;;4976300;28;20125;-53
2022/02/06 12:20:57;;;;;;;4.65;2.95;;;;;;;;;;4967697;28;20130;-53
2022/02/06 12:23:41;;;;;;;4.95;2.50;;;;;;;;;;4968861;28;20011;-53
2022/02/06 12:26:30;;;;;;;6.20;3.25;;;;;;;;;;4969854;28;20058;-54
2022/02/06 12:28:56;;;;;;;4.43;2.90;;;;;;;;;;4978766;28;20026;-54
2022/02/06 12:31:29;;;;;;;6.95;3.00;;;;;;;;;;4989171;28;20109;-53
2022/02/06 12:37:08;;;;;;;7.63;4.22;;;;;;;;;;4973073;28;20049;-54
2022/02/06 12:39:34;;;;;;;5.63;2.83;;;;;;;;;;4969463;28;20023;-53
2022/02/06 12:41:59;;;;;;;4.22;2.83;;;;;;;;;;4969418;28;21017;-53
2022/02/06 12:44:25;;;;;;;7.30;2.85;;;;;;;;;;4968916;28;20169;-53
2022/02/06 12:46:50;;;;;;;4.15;2.95;;;;;;;;;;4965305;28;20023;-53
2022/02/06 12:49:21;;;;;;;5.70;2.80;;;;;;;;;;4986043;28;20034;-54
2022/02/06 12:51:46;;;;;;;8.25;4.10;;;;;;;;;;4974931;28;20768;-53
2022/02/06 12:54:12;;;;;;;9.05;4.88;;;;;;;;;;4970672;28;20102;-53
2022/02/06 12:56:37;;;;;;;7.30;4.68;;;;;;;;;;4969423;28;20030;-53
2022/02/06 12:59:03;;;;;;;8.95;4.85;;;;;;;;;;4969194;28;20098;-53
2022/02/06 13:01:31;;;;;;;11.40;4.97;;;;;;;;;;4969334;28;20452;-54
2022/02/06 13:03:57;;;;;;;9.30;5.97;;;;;;;;;;4969542;28;20031;-54
2022/02/06 13:06:24;;;;;;;8.60;5.80;;;;;;;;;;4971664;28;20603;-53
2022/02/06 13:08:49;;;;;;;8.57;5.47;;;;;;;;;;4965201;28;20282;-55
2022/02/06 13:11:22;;;;;;;9.30;5.60;;;;;;;;;;4969144;28;20034;-54
2022/02/06 13:14:11;;;;;;;8.05;5.38;;;;;;;;;;4951766;28;20974;-54
2022/02/06 13:30:24;;;;;;;10.07;5.32;;;;;;;;;;4966791;28;20049;-54
2022/02/06 13:38:09;;;;;;;6.55;3.45;;;;;;;;;;4966329;28;20031;-54
2022/02/06 13:40:39;;;;;;;6.95;3.70;;;;;;;;;;4986934;28;20452;-54
2022/02/06 13:43:14;;;;;;;;;;;;;;;;;;4988724;28;20485;-53
2022/02/06 13:45:41;;;;;;;5.28;3.42;;;;;;;;;;4987112;28;19910;-53
2022/02/06 13:48:07;;;;;;;5.00;3.00;;;;;;;;;;4970114;28;20034;-53
2022/02/06 13:50:34;;;;;;;5.82;3.22;;;;;;;;;;4951404;28;20505;-54
2022/02/06 13:53:16;;;;;;;5.38;3.40;;;;;;;;;;4969095;28;20397;-55
2022/02/06 13:55:45;;;;;;;6.47;3.42;;;;;;;;;;4982856;28;20105;-54
2022/02/06 13:58:11;;;;;;;6.15;3.17;;;;;;;;;;4972507;28;20046;-54
2022/02/06 14:00:37;;;;;;;6.03;3.03;;;;;;;;;;4970553;28;20058;-55
2022/02/06 14:03:02;;;;;;;5.90;3.38;;;;;;;;;;4952863;28;20050;-53
2022/02/06 14:05:29;;;;;;;4.80;2.87;;;;;;;;;;4970657;28;20077;-55
2022/02/06 14:08:01;;;;;;;4.13;2.83;;;;;;;;;;4985959;28;20308;-53
2022/02/06 14:10:39;;;;;;;4.47;2.95;;;;;;;;;;4972680;28;20413;-53
2022/02/06 14:13:05;;;;;;;5.18;2.95;;;;;;;;;;4979662;28;20023;-54
2022/02/06 14:15:30;;;;;;;5.47;3.10;;;;;;;;;;4979549;28;20185;-54
2022/02/06 14:17:57;;;;;;;5.43;3.30;;;;;;;;;;4971536;28;20281;-53
2022/02/06 14:20:25;;;;;;;4.38;3.03;;;;;;;;;;4953248;28;20031;-53
2022/02/06 14:22:53;;;;;;;4.20;2.60;;;;;;;;;;4958408;28;20011;-53
2022/02/06 14:25:34;;;;;;;5.00;2.63;;;;;;;;;;4976723;28;20130;-54
2022/02/06 14:28:15;;;;;;;5.88;2.55;;;;;;;;;;4993873;28;20057;-54
2022/02/06 14:30:40;;;;;;;4.65;3.17;;;;;;;;;;4971487;28;20037;-54
2022/02/06 14:33:06;;;;;;;5.20;2.80;;;;;;;;;;4975997;28;20117;-54
2022/02/06 14:35:50;;;;;;;5.70;3.00;;;;;;;;;;4990798;28;20037;-54
2022/02/06 14:38:26;;;;;;;3.63;2.50;;;;;;;;;;4995950;28;20341;-54
2022/02/06 14:41:17;;;;;;;5.45;3.05;;;;;;;;;;4998490;28;20666;-54
2022/02/06 14:43:40;;;;;;;30.77;5.45;;;;;;;;;;4987495;28;20031;-53
2022/02/06 14:46:06;;;;;;;8.52;2.80;;;;;;;;;;4969423;28;20066;-52
2022/02/06 14:48:31;;;;;;;6.28;2.92;;;;;;;;;;4988954;28;20083;-52
2022/02/06 14:50:57;;;;;;;9.43;3.17;;;;;;;;;;4983710;28;20055;-53
2022/02/06 14:53:22;;;;;;;5.07;2.58;;;;;;;;;;4969738;28;20262;-54
2022/02/06 14:55:48;;;;;;;6.47;2.50;;;;;;;;;;4983667;28;20086;-53
2022/02/06 14:58:13;;;;;;;7.55;2.85;;;;;;;;;;4970322;28;20285;-52
2022/02/06 15:00:38;;;;;;;7.95;2.75;;;;;;;;;;4971495;28;20229;-53
2022/02/06 15:03:04;;;;;;;6.75;2.78;;;;;;;;;;4966612;28;20053;-53
2022/02/06 15:05:29;;;;;;;4.45;3.20;;;;;;;;;;4966622;28;20031;-52
2022/02/06 15:07:55;;;;;;;8.17;2.77;;;;;;;;;;4981090;28;20034;-54
2022/02/06 15:10:20;;;;;;;6.97;3.17;;;;;;;;;;4968244;28;20031;-55
2022/02/06 15:12:45;;;;;;;5.07;2.53;;;;;;;;;;4967382;28;20027;-52
2022/02/06 15:15:12;;;;;;;5.97;2.60;;;;;;;;;;4977868;28;20564;-57
2022/02/06 15:17:37;;;;;;;5.72;2.47;;;;;;;;;;4989314;28;20493;-53
2022/02/06 15:20:03;;;;;;;7.53;2.58;;;;;;;;;;4983343;28;20029;-54
2022/02/06 15:22:28;;;;;;;6.90;2.75;;;;;;;;;;4978388;28;20018;-57
2022/02/06 15:24:53;;;;;;;4.72;2.78;;;;;;;;;;4977139;28;20109;-56
2022/02/06 15:27:18;;;;;;;8.05;2.72;;;;;;;;;;4970562;28;20081;-52
2022/02/06 15:29:44;;;;;;;5.95;2.60;;;;;;;;;;4966700;28;20413;-56
2022/02/06 15:32:09;;;;;;;5.35;2.58;;;;;;;;;;4965835;28;20521;-55
2022/02/06 15:34:34;;;;;;;6.85;2.63;;;;;;;;;;4965979;28;20126;-56
2022/02/06 15:37:02;;;;;;;4.32;2.55;;;;;;;;;;4966435;28;20034;-55
2022/02/06 15:39:37;;;;;;;4.65;2.80;;;;;;;;;;4965426;28;20065;-56
2022/02/06 15:42:08;;;;;;;4.72;2.83;;;;;;;;;;4965512;28;20726;-56
2022/02/06 15:44:34;;;;;;;4.20;2.35;;;;;;;;;;4948770;28;20030;-56
2022/02/06 15:46:59;;;;;;;5.57;2.90;;;;;;;;;;4973055;28;20156;-55
2022/02/06 15:49:24;;;;;;;6.05;3.20;;;;;;;;;;4975317;28;20042;-56
2022/02/06 15:51:49;;;;;;;5.30;3.30;;;;;;;;;;4966596;28;20134;-56
2022/02/06 15:54:15;;;;;;;6.90;3.55;;;;;;;;;;4967061;28;20278;-57
2022/02/06 15:56:40;;;;;;;7.30;3.50;;;;;;;;;;4981471;28;20038;-56
2022/02/06 15:59:05;;;;;;;5.82;3.15;;;;;;;;;;4966602;28;20278;-57
2022/02/06 16:01:31;;;;;;;5.73;3.13;;;;;;;;;;4966309;28;20045;-56
2022/02/06 16:03:56;;;;;;;7.10;3.60;;;;;;;;;;4948343;28;20262;-56
2022/02/06 16:06:21;;;;;;;6.18;3.70;;;;;;;;;;4984022;28;20089;-55
2022/02/06 16:08:46;;;;;;;7.15;4.07;;;;;;;;;;4985462;28;20065;-56
2022/02/06 16:11:12;;;;;;;7.35;3.90;;;;;;;;;;4977178;28;20035;-55
2022/02/06 16:13:37;;;;;;;7.50;3.83;;;;;;;;;;4958312;28;20170;-55
2022/02/06 16:16:02;;;;;;;6.15;4.13;;;;;;;;;;4967765;28;20440;-57
2022/02/06 16:18:28;;;;;;;7.38;4.35;;;;;;;;;;4967896;28;20029;-59
2022/02/06 16:20:53;;;;;;;7.15;4.22;;;;;;;;;;4985167;28;20026;-56
2022/02/06 16:23:19;;;;;;;6.95;4.22;;;;;;;;;;4985363;28;20041;-56
2022/02/06 16:25:44;;;;;;;6.85;4.50;;;;;;;;;;4985457;28;20034;-55
2022/02/06 16:28:09;;;;;;;6.93;3.97;;;;;;;;;;4985661;28;20436;-56
2022/02/06 16:30:35;;;;;;;9.05;4.15;;;;;;;;;;4984827;28;20107;-56
2022/02/06 16:33:00;;;;;;;11.23;4.20;;;;;;;;;;4985576;28;20034;-55
2022/02/06 16:35:25;;;;;;;8.95;4.60;;;;;;;;;;4961105;28;20042;-56
2022/02/06 16:37:50;;;;;;;8.90;4.55;;;;;;;;;;4966010;28;20508;-55
2022/02/06 16:40:16;;;;;;;8.23;4.28;;;;;;;;;;4965664;28;20037;-54
2022/02/06 16:42:43;;;;;;;8.23;4.80;;;;;;;;;;4967098;28;20477;-55
2022/02/06 16:45:08;;;;;;;9.82;4.93;;;;;;;;;;4970338;28;20105;-55
2022/02/06 16:47:34;;;;;;;7.93;5.05;;;;;;;;;;4982623;28;20650;-53
2022/02/06 16:49:59;;;;;;;7.80;4.50;;;;;;;;;;4989900;28;20084;-54
2022/02/06 16:52:24;;;;;;;10.67;4.90;;;;;;;;;;4988643;28;20277;-56
2022/02/06 16:54:49;;;;;;;8.97;4.27;;;;;;;;;;4983038;28;20274;-53
2022/02/06 16:57:15;;;;;;;9.23;4.60;;;;;;;;;;4970279;28;20672;-54
2022/02/06 16:59:40;;;;;;;9.70;4.25;;;;;;;;;;4972144;28;20088;-53
2022/02/06 17:02:05;;;;;;;8.73;4.40;;;;;;;;;;4976055;28;20094;-53
2022/02/06 17:04:31;;;;;;;8.43;4.30;;;;;;;;;;4969320;28;20269;-53
2022/02/06 17:06:56;;;;;;;5.97;4.05;;;;;;;;;;4969137;28;20101;-53
2022/02/06 17:09:21;;;;;;;9.33;4.27;;;;;;;;;;4985632;28;20036;-55
2022/02/06 17:11:48;;;;;;;7.85;4.43;;;;;;;;;;4985963;28;20289;-53
2022/02/06 17:14:16;;;;;;;8.23;4.75;;;;;;;;;;4969305;28;20034;-53
2022/02/06 17:16:41;;;;;;;6.97;4.90;;;;;;;;;;4979607;28;20042;-58
2022/02/06 17:19:06;;;;;;;8.00;5.25;;;;;;;;;;4969738;28;20543;-52